Time;durP1;ratioP1;P1;durP2;ratioP2;P2;SDS_P1;SDS_P2;PMS_P1;PMS_P2;Temp;Humidity;BMP_temperature;BMP_pressure;BME280_temperature;BME280_humidity;BME280_pressure;Samples;Min_cycle;Max_cycle;Signal;HPM_P1;HPM_P2
2023/01/20 00:02:31;;;;;;;46.28;19.08;;;;;;;;;;8363922;28;20049;-88
2023/01/20 00:06:35;;;;;;;53.88;21.63;;;;;;;;;;8363717;28;20076;-84
2023/01/20 00:10:38;;;;;;;45.70;18.63;;;;;;;;;;8363294;28;20493;-86
2023/01/20 00:14:41;;;;;;;53.10;21.00;;;;;;;;;;8363688;28;20045;-86
2023/01/20 00:18:43;;;;;;;47.47;20.27;;;;;;;;;;8364032;28;20498;-85
2023/01/20 00:22:47;;;;;;;45.17;19.58;;;;;;;;;;8363649;28;20053;-87
2023/01/20 00:26:50;;;;;;;43.22;18.17;;;;;;;;;;8363440;28;20493;-85
2023/01/20 00:30:53;;;;;;;47.80;19.13;;;;;;;;;;8362884;28;20044;-86
2023/01/20 00:34:55;;;;;;;46.15;17.95;;;;;;;;;;8363371;28;20069;-86
2023/01/20 00:39:01;;;;;;;46.40;20.00;;;;;;;;;;8362739;28;20045;-87
2023/01/20 00:43:04;;;;;;;45.08;18.08;;;;;;;;;;8362680;28;20045;-87
2023/01/20 00:47:07;;;;;;;55.88;21.55;;;;;;;;;;8362620;28;20048;-87
2023/01/20 00:51:10;;;;;;;54.10;19.25;;;;;;;;;;8362389;28;20048;-87
2023/01/20 00:55:15;;;;;;;55.28;19.95;;;;;;;;;;8362447;28;20056;-86
2023/01/20 00:59:18;;;;;;;56.50;21.15;;;;;;;;;;8362360;28;20047;-87
2023/01/20 01:03:21;;;;;;;51.65;20.42;;;;;;;;;;8362110;28;20045;-86
2023/01/20 01:07:23;;;;;;;60.35;21.88;;;;;;;;;;8361850;28;20091;-86
2023/01/20 01:11:28;;;;;;;59.60;22.77;;;;;;;;;;8361998;28;20049;-86
2023/01/20 01:15:31;;;;;;;59.25;20.02;;;;;;;;;;8361844;28;20053;-86
2023/01/20 01:19:33;;;;;;;68.80;20.90;;;;;;;;;;8362501;28;20044;-85
2023/01/20 01:23:36;;;;;;;58.65;24.05;;;;;;;;;;8361718;28;20080;-86
2023/01/20 01:27:40;;;;;;;57.05;22.50;;;;;;;;;;8361932;28;20048;-85
2023/01/20 01:31:43;;;;;;;58.17;21.25;;;;;;;;;;8362181;28;20045;-86
2023/01/20 01:35:55;;;;;;;56.50;21.17;;;;;;;;;;8362258;28;20049;-86
2023/01/20 01:39:58;;;;;;;59.88;22.08;;;;;;;;;;8361550;28;20037;-86
2023/01/20 01:44:06;;;;;;;57.88;22.58;;;;;;;;;;8361614;28;20057;-85
2023/01/20 01:48:10;;;;;;;62.58;22.52;;;;;;;;;;8348820;28;20041;-86
2023/01/20 01:52:13;;;;;;;63.28;23.15;;;;;;;;;;8361930;28;20454;-84
2023/01/20 01:56:16;;;;;;;75.88;25.63;;;;;;;;;;8361361;28;20382;-83
2023/01/20 02:00:21;;;;;;;70.45;25.77;;;;;;;;;;8361881;28;20459;-86
2023/01/20 02:04:25;;;;;;;73.00;24.63;;;;;;;;;;8361364;28;20090;-85
2023/01/20 02:08:28;;;;;;;86.72;27.35;;;;;;;;;;8361105;28;20102;-85
2023/01/20 02:12:31;;;;;;;70.40;23.80;;;;;;;;;;8361547;28;20136;-85
2023/01/20 02:16:44;;;;;;;58.60;21.08;;;;;;;;;;8363112;28;20067;-83
2023/01/20 02:21:18;;;;;;;75.63;26.52;;;;;;;;;;8367118;28;20041;-85
2023/01/20 02:25:51;;;;;;;71.13;24.90;;;;;;;;;;8344333;28;20048;-86
2023/01/20 02:30:24;;;;;;;73.35;25.77;;;;;;;;;;8365341;28;20049;-85
2023/01/20 02:34:32;;;;;;;62.20;22.80;;;;;;;;;;8364892;28;20049;-86
2023/01/20 02:38:43;;;;;;;70.53;23.95;;;;;;;;;;8366953;28;20072;-83
2023/01/20 02:42:50;;;;;;;68.55;22.58;;;;;;;;;;8366535;28;20044;-86
2023/01/20 02:46:59;;;;;;;66.13;24.63;;;;;;;;;;8366354;28;20047;-86
2023/01/20 02:51:09;;;;;;;61.95;23.10;;;;;;;;;;8366101;28;20045;-87
2023/01/20 02:55:17;;;;;;;68.93;26.00;;;;;;;;;;8530298;22;20050;-87
2023/01/20 02:59:24;;;;;;;61.25;22.23;;;;;;;;;;8269363;28;20600;-89
2023/01/20 03:03:33;;;;;;;69.25;23.90;;;;;;;;;;8269358;28;20046;-89
2023/01/20 03:07:41;;;;;;;71.30;24.65;;;;;;;;;;8268676;28;20116;-89
2023/01/20 03:11:50;;;;;;;61.90;24.38;;;;;;;;;;8269102;28;20050;-90
2023/01/20 03:15:59;;;;;;;74.82;23.85;;;;;;;;;;8268992;28;20050;-89
2023/01/20 03:20:02;;;;;;;73.30;24.60;;;;;;;;;;8268955;28;20527;-90
2023/01/20 03:24:08;;;;;;;54.10;19.38;;;;;;;;;;8267999;28;20046;-89
2023/01/20 03:28:11;;;;;;;67.88;25.10;;;;;;;;;;8268486;28;20126;-90
2023/01/20 03:32:15;;;;;;;80.28;27.38;;;;;;;;;;8268482;28;20085;-90
2023/01/20 03:36:20;;;;;;;51.53;20.98;;;;;;;;;;8268414;28;20122;-89
2023/01/20 03:40:29;;;;;;;59.17;19.77;;;;;;;;;;8260457;28;20126;-90
2023/01/20 03:44:45;;;;;;;51.15;19.08;;;;;;;;;;8263797;28;20070;-89
2023/01/20 03:48:52;;;;;;;53.40;19.65;;;;;;;;;;8267868;28;20125;-87
2023/01/20 03:53:01;;;;;;;57.13;21.48;;;;;;;;;;8267488;28;20132;-89
2023/01/20 03:57:11;;;;;;;48.60;17.48;;;;;;;;;;8267588;28;20137;-89
2023/01/20 04:01:16;;;;;;;61.80;20.38;;;;;;;;;;8267472;28;20125;-90
2023/01/20 04:05:19;;;;;;;73.95;24.05;;;;;;;;;;8267430;28;20077;-90
2023/01/20 04:09:26;;;;;;;60.85;21.60;;;;;;;;;;8267245;28;20121;-90
2023/01/20 04:13:31;;;;;;;56.33;21.45;;;;;;;;;;8266947;28;20539;-90
2023/01/20 04:17:34;;;;;;;76.68;23.83;;;;;;;;;;8266787;28;20133;-89
2023/01/20 04:21:40;;;;;;;77.72;25.65;;;;;;;;;;8266532;28;20065;-89
2023/01/20 04:25:44;;;;;;;95.18;30.35;;;;;;;;;;8267024;28;20046;-90
2023/01/20 04:29:49;;;;;;;71.35;25.83;;;;;;;;;;8254199;28;20042;-88
2023/01/20 04:33:52;;;;;;;81.45;26.50;;;;;;;;;;8266493;28;20129;-89
2023/01/20 04:37:55;;;;;;;71.85;23.35;;;;;;;;;;8255369;28;20121;-89
2023/01/20 04:41:58;;;;;;;69.00;21.90;;;;;;;;;;8276595;28;20102;-88
2023/01/20 04:46:02;;;;;;;66.90;22.92;;;;;;;;;;8280440;28;20442;-90
2023/01/20 04:50:07;;;;;;;68.82;23.25;;;;;;;;;;8266979;28;20129;-89
2023/01/20 04:54:11;;;;;;;76.13;25.42;;;;;;;;;;8266089;28;20054;-91
2023/01/20 04:58:14;;;;;;;31.90;11.65;;;;;;;;;;8265959;28;20046;-91
2023/01/20 05:02:19;;;;;;;77.03;22.70;;;;;;;;;;8259280;28;20774;-89
2023/01/20 05:06:22;;;;;;;73.28;23.83;;;;;;;;;;8259825;28;20470;-87
2023/01/20 05:10:25;;;;;;;83.15;28.05;;;;;;;;;;8254333;28;20465;-88
2023/01/20 05:14:27;;;;;;;81.10;24.50;;;;;;;;;;8264636;28;20066;-88
2023/01/20 05:18:32;;;;;;;91.32;28.23;;;;;;;;;;8266787;28;20133;-89
2023/01/20 05:22:35;;;;;;;90.85;29.25;;;;;;;;;;8266147;28;20125;-90
2023/01/20 05:26:38;;;;;;;71.93;26.17;;;;;;;;;;8266156;28;20046;-89
2023/01/20 05:30:41;;;;;;;53.70;17.70;;;;;;;;;;8265779;28;20101;-88
2023/01/20 05:34:48;;;;;;;93.93;29.70;;;;;;;;;;8264825;28;20502;-89
2023/01/20 05:38:51;;;;;;;85.82;26.17;;;;;;;;;;8266058;28;20042;-89
2023/01/20 05:42:54;;;;;;;80.07;25.73;;;;;;;;;;8267242;28;20133;-89
2023/01/20 05:46:57;;;;;;;71.65;25.65;;;;;;;;;;8271761;28;20048;-89
2023/01/20 05:51:05;;;;;;;70.60;24.38;;;;;;;;;;8271747;28;20652;-89
2023/01/20 05:55:09;;;;;;;77.00;23.77;;;;;;;;;;8271205;28;20196;-89
2023/01/20 05:59:12;;;;;;;79.28;24.25;;;;;;;;;;8271828;28;20692;-90
2023/01/20 06:03:15;;;;;;;82.22;26.70;;;;;;;;;;8259492;28;20049;-89
2023/01/20 06:07:20;;;;;;;81.97;26.30;;;;;;;;;;8258712;28;20046;-90
2023/01/20 06:11:23;;;;;;;81.22;27.23;;;;;;;;;;8271228;28;20121;-89
2023/01/20 06:15:26;;;;;;;77.60;26.67;;;;;;;;;;8271288;28;20050;-89
2023/01/20 06:19:29;;;;;;;75.57;26.73;;;;;;;;;;8257961;28;20122;-90
2023/01/20 06:23:34;;;;;;;86.32;28.60;;;;;;;;;;8270756;28;20046;-88
2023/01/20 06:27:37;;;;;;;102.97;33.78;;;;;;;;;;8269274;28;20387;-89
2023/01/20 06:31:40;;;;;;;95.03;29.00;;;;;;;;;;8251576;28;20066;-91
2023/01/20 06:35:43;;;;;;;85.93;29.92;;;;;;;;;;8268601;28;20077;-91
2023/01/20 06:39:47;;;;;;;76.10;24.13;;;;;;;;;;8259740;28;20066;-88
2023/01/20 06:43:51;;;;;;;74.47;23.38;;;;;;;;;;8271993;28;20478;-89
2023/01/20 06:47:54;;;;;;;75.18;25.17;;;;;;;;;;8269891;28;20101;-91
2023/01/20 06:51:57;;;;;;;73.25;25.83;;;;;;;;;;8267923;28;20077;-90
2023/01/20 06:56:02;;;;;;;77.25;25.35;;;;;;;;;;8267194;28;20065;-89
2023/01/20 07:00:06;;;;;;;83.80;22.02;;;;;;;;;;8269838;28;20477;-90
2023/01/20 07:04:13;;;;;;;64.78;21.17;;;;;;;;;;8268182;28;20048;-90
2023/01/20 07:08:16;;;;;;;87.18;23.70;;;;;;;;;;8269752;28;20048;-91
2023/01/20 07:12:20;;;;;;;80.05;20.90;;;;;;;;;;8270098;28;20070;-89
2023/01/20 07:16:24;;;;;;;68.38;19.55;;;;;;;;;;8268987;28;20047;-89
2023/01/20 07:20:27;;;;;;;70.88;22.50;;;;;;;;;;8268893;28;20049;-89
2023/01/20 07:24:30;;;;;;;89.10;22.58;;;;;;;;;;8254666;28;20081;-92
2023/01/20 07:28:35;;;;;;;92.47;23.85;;;;;;;;;;8264482;28;20124;-90
2023/01/20 07:32:38;;;;;;;94.28;25.27;;;;;;;;;;8264459;28;20046;-91
2023/01/20 07:36:41;;;;;;;105.25;26.88;;;;;;;;;;8263919;28;20057;-89
2023/01/20 07:40:44;;;;;;;112.78;27.35;;;;;;;;;;8268361;28;20052;-89
2023/01/20 07:44:48;;;;;;;100.10;29.42;;;;;;;;;;8268139;28;20057;-88
2023/01/20 07:48:51;;;;;;;109.20;28.33;;;;;;;;;;8273418;28;20054;-87
2023/01/20 07:52:54;;;;;;;82.22;24.33;;;;;;;;;;8271314;28;20078;-92
2023/01/20 07:56:57;;;;;;;81.25;23.55;;;;;;;;;;8250705;28;20058;-92
2023/01/20 08:01:09;;;;;;;76.35;22.50;;;;;;;;;;8269886;28;21846;-92
2023/01/20 08:05:12;;;;;;;79.85;23.83;;;;;;;;;;8266156;28;20497;-91
2023/01/20 08:09:15;;;;;;;65.00;21.55;;;;;;;;;;8272959;28;20177;-90
2023/01/20 08:13:18;;;;;;;81.13;22.95;;;;;;;;;;8273233;28;20121;-89
2023/01/20 08:17:23;;;;;;;66.13;20.70;;;;;;;;;;8272098;28;20069;-90
2023/01/20 08:21:27;;;;;;;64.40;24.58;;;;;;;;;;8264827;28;20472;-91
2023/01/20 08:25:31;;;;;;;84.45;29.35;;;;;;;;;;8271224;28;20050;-90
2023/01/20 08:29:34;;;;;;;92.15;30.70;;;;;;;;;;8266797;28;20042;-89
2023/01/20 08:33:41;;;;;;;98.25;31.60;;;;;;;;;;8271460;28;20046;-89
2023/01/20 08:37:44;;;;;;;64.43;25.55;;;;;;;;;;8265582;28;20142;-94
2023/01/20 08:41:48;;;;;;;72.78;25.52;;;;;;;;;;8260481;28;20145;-94
2023/01/20 08:45:59;;;;;;;66.45;23.35;;;;;;;;;;8262730;28;20034;-88
2023/01/20 08:50:04;;;;;;;99.43;29.30;;;;;;;;;;8255923;28;20057;-90
2023/01/20 08:54:08;;;;;;;60.13;19.88;;;;;;;;;;8256915;28;20069;-92
2023/01/20 08:58:11;;;;;;;92.47;31.77;;;;;;;;;;8265996;28;20054;-84
2023/01/20 09:02:14;;;;;;;67.03;23.42;;;;;;;;;;8257619;28;20069;-91
2023/01/20 09:06:20;;;;;;;51.03;20.73;;;;;;;;;;8253252;28;20050;-86
2023/01/20 09:10:23;;;;;;;67.63;22.85;;;;;;;;;;8265806;28;20367;-87
2023/01/20 09:14:26;;;;;;;57.20;23.48;;;;;;;;;;8266428;28;20450;-91
2023/01/20 09:18:30;;;;;;;66.18;22.38;;;;;;;;;;8254416;28;20118;-91
2023/01/20 09:22:34;;;;;;;61.08;22.00;;;;;;;;;;8251624;28;20046;-91
2023/01/20 09:26:40;;;;;;;58.45;20.02;;;;;;;;;;8257088;28;20046;-91
2023/01/20 09:30:43;;;;;;;62.95;24.05;;;;;;;;;;8258630;28;20475;-91
2023/01/20 09:34:47;;;;;;;74.47;27.05;;;;;;;;;;8272426;28;20433;-90
2023/01/20 09:48:12;;;;;;;61.67;20.67;;;;;;;;;;8166575;28;20145;-91
2023/01/20 09:56:49;;;;;;;64.97;25.15;;;;;;;;;;8255790;28;20417;-90
2023/01/20 10:00:59;;;;;;;69.63;23.13;;;;;;;;;;8271271;28;20042;-90
2023/01/20 10:05:07;;;;;;;58.65;22.50;;;;;;;;;;8276642;28;20053;-90
2023/01/20 10:09:20;;;;;;;60.65;21.13;;;;;;;;;;8265078;28;20070;-91
2023/01/20 10:13:31;;;;;;;55.78;21.15;;;;;;;;;;8268127;28;20573;-93
2023/01/20 10:17:42;;;;;;;;;;;;;;;;;;8265565;28;20054;-91
2023/01/20 10:21:54;;;;;;;72.15;23.20;;;;;;;;;;8261958;28;20040;-89
2023/01/20 10:26:04;;;;;;;73.63;23.48;;;;;;;;;;8272982;28;20133;-92
2023/01/20 10:30:13;;;;;;;71.72;21.00;;;;;;;;;;8273249;28;20042;-89
2023/01/20 10:34:26;;;;;;;56.10;18.55;;;;;;;;;;8289766;28;20602;-90
2023/01/20 10:38:51;;;;;;;32.08;10.10;;;;;;;;;;8270511;28;20069;-91
2023/01/20 10:43:10;;;;;;;68.82;19.17;;;;;;;;;;8264365;28;20396;-91
2023/01/20 10:47:35;;;;;;;70.57;20.77;;;;;;;;;;8261802;28;20050;-92
2023/01/20 10:51:46;;;;;;;60.03;20.13;;;;;;;;;;8276371;28;20068;-92
2023/01/20 10:56:07;;;;;;;61.35;21.80;;;;;;;;;;8271025;28;20062;-89
2023/01/20 11:00:23;;;;;;;56.57;17.90;;;;;;;;;;8272562;28;20482;-93
2023/01/20 11:04:30;;;;;;;77.53;23.67;;;;;;;;;;8267285;28;20057;-90
2023/01/20 11:08:33;;;;;;;63.83;20.40;;;;;;;;;;8274629;28;20057;-90
2023/01/20 11:12:46;;;;;;;64.70;20.20;;;;;;;;;;8276202;28;20078;-93
2023/01/20 11:16:54;;;;;;;57.72;19.73;;;;;;;;;;8282270;28;20042;-93
2023/01/20 11:21:05;;;;;;;54.55;18.15;;;;;;;;;;8263699;28;20058;-91
2023/01/20 11:25:24;;;;;;;53.63;17.65;;;;;;;;;;8276758;28;20050;-91
2023/01/20 11:29:30;;;;;;;57.00;17.92;;;;;;;;;;8258979;28;20070;-92
2023/01/20 11:33:33;;;;;;;53.80;17.48;;;;;;;;;;8264397;28;20073;-93
2023/01/20 11:37:39;;;;;;;71.78;20.85;;;;;;;;;;8256203;28;20134;-92
2023/01/20 11:41:42;;;;;;;54.35;17.75;;;;;;;;;;8271353;28;20054;-92
2023/01/20 11:45:46;;;;;;;57.60;17.17;;;;;;;;;;8275563;28;20484;-93
2023/01/20 11:50:17;;;;;;;60.22;18.02;;;;;;;;;;8268889;28;20158;-91
2023/01/20 11:54:26;;;;;;;62.33;18.97;;;;;;;;;;8263237;28;20046;-91
2023/01/20 11:58:33;;;;;;;58.83;16.63;;;;;;;;;;8268650;28;20297;-91
2023/01/20 12:02:40;;;;;;;55.05;19.00;;;;;;;;;;8267540;28;20046;-90
2023/01/20 12:06:52;;;;;;;49.88;15.65;;;;;;;;;;8267558;28;20038;-90
2023/01/20 12:11:00;;;;;;;42.30;12.93;;;;;;;;;;8245664;28;20066;-90
2023/01/20 12:15:10;;;;;;;41.90;13.50;;;;;;;;;;8248745;28;20126;-90
2023/01/20 12:19:18;;;;;;;45.63;14.45;;;;;;;;;;8246082;28;20466;-90
2023/01/20 12:23:31;;;;;;;32.45;10.43;;;;;;;;;;8268396;28;20121;-91
2023/01/20 12:27:45;;;;;;;49.78;15.10;;;;;;;;;;8265236;28;20234;-92
2023/01/20 12:31:49;;;;;;;45.85;16.23;;;;;;;;;;8259179;28;20062;-91
2023/01/20 12:36:25;;;;;;;45.92;15.63;;;;;;;;;;8265687;28;20046;-89
2023/01/20 12:40:38;;;;;;;46.05;14.52;;;;;;;;;;8264796;28;20120;-93
2023/01/20 12:44:47;;;;;;;50.65;16.38;;;;;;;;;;8264083;28;20467;-90
2023/01/20 12:49:06;;;;;;;54.85;16.10;;;;;;;;;;8261995;28;20453;-91
2023/01/20 12:53:29;;;;;;;41.60;15.38;;;;;;;;;;8258935;28;20053;-90
2023/01/20 12:57:49;;;;;;;46.35;14.43;;;;;;;;;;8269865;28;20054;-91
2023/01/20 13:02:21;;;;;;;42.38;14.35;;;;;;;;;;8274265;28;20046;-91
2023/01/20 13:07:13;;;;;;;46.10;16.23;;;;;;;;;;8275061;28;20049;-91
2023/01/20 13:11:28;;;;;;;53.58;17.45;;;;;;;;;;8274144;28;20046;-91
2023/01/20 13:15:47;;;;;;;43.58;14.27;;;;;;;;;;8281875;28;20421;-93
2023/01/20 13:20:00;;;;;;;;;;;;;;;;;;8276216;28;20073;-92
2023/01/20 13:24:18;;;;;;;61.38;19.23;;;;;;;;;;8284782;28;19925;-92
2023/01/20 13:33:05;;;;;;;73.75;25.90;;;;;;;;;;8207150;29;20047;-91
2023/01/20 13:37:39;;;;;;;66.53;20.92;;;;;;;;;;8226206;29;20054;-90
2023/01/20 13:41:51;;;;;;;48.10;17.45;;;;;;;;;;8196486;29;20059;-90
2023/01/20 13:46:35;;;;;;;44.80;13.05;;;;;;;;;;8217719;29;20078;-88
2023/01/20 13:50:40;;;;;;;43.83;15.27;;;;;;;;;;8202195;29;20067;-90
2023/01/20 13:54:48;;;;;;;44.08;14.60;;;;;;;;;;8182730;29;20142;-92
2023/01/20 13:58:51;;;;;;;46.00;15.57;;;;;;;;;;8201085;29;20062;-93
2023/01/20 14:03:01;;;;;;;40.17;13.55;;;;;;;;;;8246303;28;20106;-92
2023/01/20 14:07:08;;;;;;;56.40;17.02;;;;;;;;;;8278849;28;20050;-91
2023/01/20 14:11:22;;;;;;;38.10;14.35;;;;;;;;;;8273134;28;20050;-91
2023/01/20 14:15:32;;;;;;;21.23;8.98;;;;;;;;;;8282185;28;20078;-91
2023/01/20 14:19:37;;;;;;;46.72;13.93;;;;;;;;;;8284243;28;20061;-92
2023/01/20 14:23:45;;;;;;;52.13;15.68;;;;;;;;;;8283126;28;20046;-91
2023/01/20 14:27:51;;;;;;;49.47;15.25;;;;;;;;;;8256036;28;20050;-93
2023/01/20 14:32:02;;;;;;;36.55;14.18;;;;;;;;;;8290787;28;20046;-90
2023/01/20 14:36:07;;;;;;;21.70;7.20;;;;;;;;;;8274028;28;20152;-91
2023/01/20 14:40:23;;;;;;;19.60;6.22;;;;;;;;;;8267895;28;20455;-93
2023/01/20 14:44:33;;;;;;;47.88;13.65;;;;;;;;;;8272007;28;20054;-92
2023/01/20 14:48:37;;;;;;;47.38;13.35;;;;;;;;;;8270149;28;20050;-91
2023/01/20 14:52:41;;;;;;;52.38;15.27;;;;;;;;;;8270695;28;20117;-92
2023/01/20 14:56:48;;;;;;;44.40;16.83;;;;;;;;;;8286532;28;20066;-89
2023/01/20 15:00:56;;;;;;;45.67;15.43;;;;;;;;;;8277993;28;20049;-91
2023/01/20 15:04:59;;;;;;;34.30;11.77;;;;;;;;;;8272621;28;20038;-91
2023/01/20 15:09:02;;;;;;;35.53;12.15;;;;;;;;;;8270061;28;20048;-91
2023/01/20 15:13:29;;;;;;;55.35;16.77;;;;;;;;;;8266651;28;20046;-89
2023/01/20 15:17:34;;;;;;;48.33;14.48;;;;;;;;;;8264465;28;20042;-90
2023/01/20 15:21:38;;;;;;;32.30;10.77;;;;;;;;;;8275830;28;20254;-91
2023/01/20 15:25:40;;;;;;;24.83;8.77;;;;;;;;;;8256496;28;20125;-91
2023/01/20 15:30:00;;;;;;;33.70;13.02;;;;;;;;;;8263181;28;20081;-92
2023/01/20 15:34:05;;;;;;;59.08;17.35;;;;;;;;;;8261824;28;20386;-90
2023/01/20 15:38:12;;;;;;;23.98;9.20;;;;;;;;;;8258464;28;20046;-93
2023/01/20 15:42:17;;;;;;;20.98;8.77;;;;;;;;;;8263318;28;20055;-90
2023/01/20 15:46:20;;;;;;;27.80;9.50;;;;;;;;;;8263361;28;20066;-92
2023/01/20 15:50:26;;;;;;;39.88;15.27;;;;;;;;;;8258208;28;20042;-90
2023/01/20 15:54:31;;;;;;;13.10;6.70;;;;;;;;;;8251760;28;20487;-93
2023/01/20 15:58:38;;;;;;;18.20;6.72;;;;;;;;;;8260990;28;20050;-92
2023/01/20 16:02:41;;;;;;;47.85;12.68;;;;;;;;;;8259087;28;20980;-92
2023/01/20 16:06:45;;;;;;;26.02;10.90;;;;;;;;;;8261411;28;20050;-88
2023/01/20 16:10:49;;;;;;;55.38;16.90;;;;;;;;;;8261399;28;20447;-92
2023/01/20 16:14:53;;;;;;;225.20;63.45;;;;;;;;;;8257268;28;20124;-91
2023/01/20 16:18:58;;;;;;;27.30;8.85;;;;;;;;;;8250359;28;20718;-91
2023/01/20 16:23:02;;;;;;;17.73;6.78;;;;;;;;;;8254429;28;20049;-90
2023/01/20 16:27:15;;;;;;;16.92;6.43;;;;;;;;;;8259387;28;20452;-92
2023/01/20 16:31:18;;;;;;;;;;;;;;;;;;8252355;28;20042;-90
2023/01/20 16:35:24;;;;;;;32.78;10.70;;;;;;;;;;8255792;28;20247;-90
2023/01/20 16:39:31;;;;;;;23.90;10.07;;;;;;;;;;8251190;28;20042;-92
2023/01/20 16:43:40;;;;;;;13.32;6.93;;;;;;;;;;8256336;28;20486;-90
2023/01/20 16:47:44;;;;;;;18.10;7.78;;;;;;;;;;8251978;28;20050;-92
2023/01/20 16:51:53;;;;;;;28.60;11.55;;;;;;;;;;8249660;28;20050;-90
2023/01/20 16:55:59;;;;;;;29.20;10.95;;;;;;;;;;8248608;28;20094;-91
2023/01/20 17:00:04;;;;;;;14.55;6.45;;;;;;;;;;8252673;28;20125;-92
2023/01/20 17:04:11;;;;;;;12.48;5.03;;;;;;;;;;8256878;28;20046;-92
2023/01/20 17:08:15;;;;;;;14.63;7.13;;;;;;;;;;8249885;28;20078;-93
2023/01/20 17:12:20;;;;;;;22.40;9.93;;;;;;;;;;8251476;28;20046;-90
2023/01/20 17:16:26;;;;;;;7.97;4.88;;;;;;;;;;8251120;28;20137;-93
2023/01/20 17:20:31;;;;;;;10.07;5.50;;;;;;;;;;8257569;28;20398;-90
2023/01/20 17:24:35;;;;;;;10.55;5.22;;;;;;;;;;8254384;28;20482;-92
2023/01/20 17:28:40;;;;;;;24.63;10.63;;;;;;;;;;8249251;28;20050;-92
2023/01/20 17:32:47;;;;;;;12.68;5.38;;;;;;;;;;8265898;28;20487;-93
2023/01/20 17:36:51;;;;;;;18.05;7.03;;;;;;;;;;8265974;28;20053;-91
2023/01/20 17:41:00;;;;;;;32.38;18.67;;;;;;;;;;8253744;28;20133;-92
2023/01/20 17:45:06;;;;;;;16.20;6.55;;;;;;;;;;8266232;28;20037;-92
2023/01/20 17:49:09;;;;;;;14.40;6.65;;;;;;;;;;8286122;28;20137;-93
2023/01/20 17:53:14;;;;;;;25.70;9.10;;;;;;;;;;8259299;28;20042;-93
2023/01/20 17:57:18;;;;;;;23.80;7.82;;;;;;;;;;8253890;28;20560;-90
2023/01/20 18:01:26;;;;;;;19.50;9.15;;;;;;;;;;8265612;28;20043;-92
2023/01/20 18:05:30;;;;;;;20.35;6.55;;;;;;;;;;8264082;28;20031;-91
2023/01/20 18:09:34;;;;;;;35.40;13.43;;;;;;;;;;8260298;28;20096;-90
2023/01/20 18:13:39;;;;;;;23.88;8.48;;;;;;;;;;8257202;28;20054;-90
2023/01/20 18:17:44;;;;;;;37.30;14.40;;;;;;;;;;8267150;28;20046;-92
2023/01/20 18:21:48;;;;;;;15.13;6.57;;;;;;;;;;8257399;28;20054;-93
2023/01/20 18:25:55;;;;;;;29.52;10.45;;;;;;;;;;8258613;28;20049;-92
2023/01/20 18:29:59;;;;;;;18.23;7.70;;;;;;;;;;8260326;28;20104;-91
2023/01/20 18:34:07;;;;;;;16.20;6.90;;;;;;;;;;8256767;28;20046;-91
2023/01/20 18:38:12;;;;;;;21.38;8.75;;;;;;;;;;8262498;28;20046;-91
2023/01/20 18:42:16;;;;;;;23.92;9.65;;;;;;;;;;8264799;28;20039;-92
2023/01/20 18:46:20;;;;;;;25.42;10.23;;;;;;;;;;8261769;28;20038;-92
2023/01/20 18:50:27;;;;;;;37.95;15.10;;;;;;;;;;8254418;28;20049;-91
2023/01/20 18:54:37;;;;;;;20.13;7.38;;;;;;;;;;8257340;28;20105;-90
2023/01/20 18:58:44;;;;;;;22.45;9.25;;;;;;;;;;8258824;28;20073;-90
2023/01/20 19:03:06;;;;;;;24.05;8.32;;;;;;;;;;8260264;28;20048;-90
2023/01/20 19:07:24;;;;;;;23.52;7.55;;;;;;;;;;8251416;28;20122;-92
2023/01/20 19:11:42;;;;;;;16.60;6.50;;;;;;;;;;8260064;28;20069;-89
2023/01/20 19:15:48;;;;;;;19.73;6.78;;;;;;;;;;8263619;28;20418;-91
2023/01/20 19:19:53;;;;;;;9.05;4.40;;;;;;;;;;8260527;28;20049;-88
2023/01/20 19:24:04;;;;;;;13.23;6.00;;;;;;;;;;8269518;28;20065;-90
2023/01/20 19:28:09;;;;;;;6.95;3.75;;;;;;;;;;8261387;28;20483;-88
2023/01/20 19:32:38;;;;;;;24.13;9.35;;;;;;;;;;8265683;28;20039;-91
2023/01/20 19:36:46;;;;;;;13.27;6.95;;;;;;;;;;8267101;28;20038;-91
2023/01/20 19:40:55;;;;;;;8.50;4.20;;;;;;;;;;8267044;28;20069;-90
2023/01/20 19:45:03;;;;;;;11.07;5.57;;;;;;;;;;8256526;28;20139;-86
2023/01/20 19:49:10;;;;;;;10.23;6.20;;;;;;;;;;8257725;28;20063;-90
2023/01/20 19:53:19;;;;;;;14.00;6.43;;;;;;;;;;8257029;28;20125;-92
2023/01/20 19:57:44;;;;;;;16.73;6.68;;;;;;;;;;8269198;28;20096;-90
2023/01/20 20:01:48;;;;;;;17.00;7.28;;;;;;;;;;8270376;28;20054;-93
2023/01/20 20:05:59;;;;;;;14.25;6.70;;;;;;;;;;8256789;28;20043;-90
2023/01/20 20:10:08;;;;;;;13.32;6.15;;;;;;;;;;8255527;28;20402;-90
2023/01/20 20:14:18;;;;;;;7.60;4.65;;;;;;;;;;8256234;28;20061;-90
2023/01/20 20:18:37;;;;;;;16.38;7.10;;;;;;;;;;8253528;28;20133;-90
2023/01/20 20:22:46;;;;;;;11.95;5.95;;;;;;;;;;8263129;28;20057;-89
2023/01/20 20:26:50;;;;;;;13.98;6.93;;;;;;;;;;8261595;28;20046;-90
2023/01/20 20:31:06;;;;;;;25.77;10.73;;;;;;;;;;8255937;28;20046;-92
2023/01/20 20:35:13;;;;;;;13.27;5.95;;;;;;;;;;8267878;28;20046;-91
2023/01/20 20:39:24;;;;;;;10.25;5.60;;;;;;;;;;8268060;28;20050;-91
2023/01/20 20:43:52;;;;;;;19.60;9.20;;;;;;;;;;8261687;28;20156;-90
2023/01/20 20:48:19;;;;;;;8.18;4.25;;;;;;;;;;8256086;28;20059;-91
2023/01/20 20:52:24;;;;;;;9.25;5.60;;;;;;;;;;8254394;28;20133;-91
2023/01/20 20:56:36;;;;;;;10.50;4.35;;;;;;;;;;8259384;28;20585;-90
2023/01/20 21:00:43;;;;;;;11.70;6.43;;;;;;;;;;8265615;28;20379;-91
2023/01/20 21:04:56;;;;;;;9.73;5.00;;;;;;;;;;8278571;28;20038;-91
2023/01/20 21:09:02;;;;;;;17.25;7.80;;;;;;;;;;8272714;28;20046;-93
2023/01/20 21:13:07;;;;;;;13.93;6.40;;;;;;;;;;8270796;28;20483;-88
2023/01/20 21:17:13;;;;;;;12.90;5.82;;;;;;;;;;8255172;28;20418;-90
2023/01/20 21:21:27;;;;;;;20.02;8.65;;;;;;;;;;8266957;28;20096;-92
2023/01/20 21:25:34;;;;;;;11.65;6.07;;;;;;;;;;8266601;28;20038;-90
2023/01/20 21:29:43;;;;;;;11.85;5.22;;;;;;;;;;8268339;28;20042;-92
2023/01/20 21:34:06;;;;;;;10.48;5.82;;;;;;;;;;8269938;28;20068;-92
2023/01/20 21:38:36;;;;;;;11.73;5.00;;;;;;;;;;8260733;28;20042;-90
2023/01/20 21:42:42;;;;;;;18.80;7.78;;;;;;;;;;8267622;28;20092;-93
2023/01/20 21:46:49;;;;;;;20.10;9.60;;;;;;;;;;8253369;28;20050;-91
2023/01/20 21:55:33;;;;;;;13.18;5.43;;;;;;;;;;8263968;28;20054;-90
2023/01/20 21:59:46;;;;;;;9.70;4.70;;;;;;;;;;8245333;28;20055;-91
2023/01/20 22:03:50;;;;;;;10.40;4.95;;;;;;;;;;8252583;28;20052;-88
2023/01/20 22:07:53;;;;;;;10.75;5.43;;;;;;;;;;8264017;28;20042;-91
2023/01/20 22:12:01;;;;;;;15.23;7.57;;;;;;;;;;8262425;28;20449;-90
2023/01/20 22:16:05;;;;;;;9.85;5.28;;;;;;;;;;8261392;28;20152;-87
2023/01/20 22:20:13;;;;;;;37.60;16.58;;;;;;;;;;8260378;28;20502;-91
2023/01/20 22:24:19;;;;;;;11.77;4.50;;;;;;;;;;8236499;28;20050;-87
2023/01/20 22:28:24;;;;;;;13.18;6.18;;;;;;;;;;8232981;28;20120;-89
2023/01/20 22:32:27;;;;;;;19.00;9.13;;;;;;;;;;8250654;28;20474;-87
2023/01/20 22:36:30;;;;;;;17.40;6.53;;;;;;;;;;8264105;28;20050;-87
2023/01/20 22:40:33;;;;;;;22.60;9.73;;;;;;;;;;8250621;28;20130;-90
2023/01/20 22:44:38;;;;;;;19.13;7.70;;;;;;;;;;8258026;28;20054;-84
2023/01/20 22:48:41;;;;;;;8.82;4.90;;;;;;;;;;8256358;28;20080;-86
2023/01/20 22:52:44;;;;;;;9.15;4.18;;;;;;;;;;8247293;28;20482;-89
2023/01/20 22:56:47;;;;;;;23.92;10.40;;;;;;;;;;8242665;28;20474;-86
2023/01/20 23:00:56;;;;;;;25.42;10.85;;;;;;;;;;8246219;28;20046;-91
2023/01/20 23:05:04;;;;;;;15.80;7.95;;;;;;;;;;8255782;28;20035;-88
2023/01/20 23:09:10;;;;;;;18.67;8.65;;;;;;;;;;8274681;28;20493;-91
2023/01/20 23:13:14;;;;;;;10.35;4.70;;;;;;;;;;8271740;28;20068;-90
2023/01/20 23:17:18;;;;;;;20.88;7.70;;;;;;;;;;8269918;28;20047;-84
2023/01/20 23:21:23;;;;;;;9.90;4.35;;;;;;;;;;8258564;28;20052;-85
2023/01/20 23:25:26;;;;;;;21.48;9.73;;;;;;;;;;8269408;28;20046;-91
2023/01/20 23:29:32;;;;;;;14.38;6.43;;;;;;;;;;8269563;28;20046;-90
2023/01/20 23:33:36;;;;;;;11.27;6.07;;;;;;;;;;8256938;28;20049;-88
2023/01/20 23:37:39;;;;;;;9.63;4.47;;;;;;;;;;8264733;28;20043;-85
2023/01/20 23:41:42;;;;;;;6.88;3.95;;;;;;;;;;8260642;28;20050;-91
2023/01/20 23:45:45;;;;;;;10.10;5.40;;;;;;;;;;8268517;28;20078;-88
2023/01/20 23:49:50;;;;;;;9.82;4.55;;;;;;;;;;8267947;28;20125;-90
2023/01/20 23:53:53;;;;;;;14.27;7.28;;;;;;;;;;8267345;28;20053;-87
2023/01/20 23:57:56;;;;;;;7.82;4.30;;;;;;;;;;8267211;28;20062;-89
